Time;durP1;ratioP1;P1;durP2;ratioP2;P2;SDS_P1;SDS_P2;PMS_P1;PMS_P2;Temp;Humidity;BMP_temperature;BMP_pressure;BME280_temperature;BME280_humidity;BME280_pressure;Samples;Min_cycle;Max_cycle;Signal;HPM_P1;HPM_P2
2022/09/21 00:02:45;;;;;;;0.10;0.10;;;;;;;12.12;58.80;98743.03;8415304;28;20238;-75
2022/09/21 00:06:48;;;;;;;0.10;0.10;;;;;;;11.98;60.39;98738.38;8415047;28;20280;-74
2022/09/21 00:10:52;;;;;;;0.10;0.10;;;;;;;11.98;61.44;98740.97;8415711;28;20235;-74
2022/09/21 00:14:55;;;;;;;0.10;0.10;;;;;;;12.00;61.85;98741.75;8415406;28;20243;-74
2022/09/21 00:18:58;;;;;;;0.10;0.10;;;;;;;12.09;61.70;98736.22;8415606;28;20238;-75
2022/09/21 00:23:00;;;;;;;0.00;0.00;;;;;;;12.23;61.44;98733.06;8415671;28;20231;-75
2022/09/21 00:27:05;;;;;;;0.10;0.10;;;;;;;12.20;61.38;98735.78;8415147;28;20223;-75
2022/09/21 00:31:10;;;;;;;0.10;0.10;;;;;;;12.11;61.26;98736.16;8414998;28;20231;-75
2022/09/21 00:35:13;;;;;;;0.10;0.10;;;;;;;11.99;60.88;98736.63;8415109;28;20528;-75
2022/09/21 00:39:16;;;;;;;0.00;0.00;;;;;;;11.89;61.28;98743.88;8414853;28;20279;-75
2022/09/21 00:43:20;;;;;;;0.10;0.10;;;;;;;12.04;62.51;98747.69;8414753;28;20237;-75
2022/09/21 00:47:26;;;;;;;0.10;0.10;;;;;;;12.11;62.27;98741.34;8413972;28;20235;-76
2022/09/21 00:51:29;;;;;;;0.17;0.17;;;;;;;12.04;62.30;98747.69;8414434;28;20233;-75
2022/09/21 00:55:36;;;;;;;0.20;0.20;;;;;;;12.11;62.49;98754.34;8414582;28;20222;-75
2022/09/21 00:59:41;;;;;;;0.10;0.10;;;;;;;12.18;62.25;98739.34;8414438;28;20239;-75
2022/09/21 01:03:45;;;;;;;0.10;0.10;;;;;;;12.12;62.26;98756.00;8414242;28;20226;-75
2022/09/21 01:07:48;;;;;;;0.10;0.10;;;;;;;12.12;62.32;98748.22;8413626;28;20231;-74
2022/09/21 01:11:59;;;;;;;0.10;0.10;;;;;;;12.17;62.08;98753.25;8414108;28;20223;-75
2022/09/21 01:16:07;;;;;;;0.10;0.10;;;;;;;12.09;62.44;98756.16;8413835;28;20235;-75
2022/09/21 01:20:25;;;;;;;0.10;0.10;;;;;;;11.99;62.58;98752.19;8414031;28;20380;-75
2022/09/21 01:24:45;;;;;;;0.20;0.20;;;;;;;11.95;62.96;98750.63;8413745;28;20261;-75
2022/09/21 01:28:58;;;;;;;0.13;0.13;;;;;;;11.88;63.03;98750.81;8413276;28;20223;-74
2022/09/21 01:33:05;;;;;;;0.10;0.10;;;;;;;12.06;63.02;98751.91;8413631;28;20231;-75
2022/09/21 01:37:11;;;;;;;0.10;0.10;;;;;;;12.16;61.50;98757.59;8413562;28;20227;-74
2022/09/21 01:41:17;;;;;;;0.10;0.10;;;;;;;12.16;60.74;98762.78;8413546;28;20284;-75
2022/09/21 01:45:24;;;;;;;0.10;0.10;;;;;;;12.12;60.58;98764.63;8413213;28;20313;-75
2022/09/21 01:49:30;;;;;;;0.10;0.10;;;;;;;12.02;60.51;98765.91;8413591;28;20545;-75
2022/09/21 01:53:37;;;;;;;0.10;0.10;;;;;;;12.08;61.08;98765.66;8413332;28;20250;-75
2022/09/21 01:57:43;;;;;;;0.10;0.10;;;;;;;12.09;61.44;98767.38;8413307;28;20226;-75
2022/09/21 02:01:50;;;;;;;0.10;0.10;;;;;;;11.97;61.65;98769.56;8413250;28;20234;-75
2022/09/21 02:05:53;;;;;;;0.10;0.10;;;;;;;11.78;62.25;98761.59;8412637;28;20231;-75
2022/09/21 02:09:56;;;;;;;0.00;0.00;;;;;;;11.90;62.64;98763.78;8412907;28;20246;-75
2022/09/21 02:13:59;;;;;;;0.10;0.10;;;;;;;11.90;63.10;98767.22;8412853;28;20465;-74
2022/09/21 02:18:07;;;;;;;0.10;0.10;;;;;;;11.91;62.37;98771.47;8412642;28;20303;-75
2022/09/21 02:22:14;;;;;;;0.10;0.10;;;;;;;11.90;62.66;98772.41;8412817;28;20277;-74
2022/09/21 02:26:20;;;;;;;0.00;0.00;;;;;;;12.06;63.02;98764.03;8413267;28;20227;-74
2022/09/21 02:30:24;;;;;;;0.20;0.20;;;;;;;11.87;62.97;98761.25;8418771;28;20239;-74
2022/09/21 02:34:33;;;;;;;0.10;0.10;;;;;;;11.95;62.69;98764.44;8418789;28;20243;-75
2022/09/21 02:38:39;;;;;;;0.00;0.00;;;;;;;12.05;61.92;98764.94;8418573;28;20238;-75
2022/09/21 02:42:45;;;;;;;0.10;0.10;;;;;;;11.92;62.81;98769.75;8418486;28;20250;-75
2022/09/21 02:46:53;;;;;;;0.10;0.10;;;;;;;11.90;62.58;98764.63;8417836;28;20249;-73
2022/09/21 02:50:59;;;;;;;0.20;0.20;;;;;;;11.99;62.87;98767.75;8418015;28;20242;-75
2022/09/21 02:55:02;;;;;;;0.10;0.10;;;;;;;11.92;62.74;98765.41;8418189;28;20227;-75
2022/09/21 02:59:06;;;;;;;0.10;0.10;;;;;;;11.91;63.33;98763.69;8418310;28;20429;-75
2022/09/21 03:03:17;;;;;;;0.03;0.03;;;;;;;11.99;63.02;98772.94;8417816;28;20246;-75
2022/09/21 03:07:21;;;;;;;0.10;0.10;;;;;;;11.90;62.51;98768.97;8417574;28;20230;-74
2022/09/21 03:11:24;;;;;;;0.20;0.20;;;;;;;11.65;62.87;98764.63;8417797;28;20247;-75
2022/09/21 03:15:27;;;;;;;0.10;0.10;;;;;;;11.76;63.09;98761.63;8417661;28;20238;-75
2022/09/21 03:19:30;;;;;;;0.10;0.10;;;;;;;11.79;62.82;98765.88;8417330;28;20455;-75
2022/09/21 03:23:34;;;;;;;0.10;0.10;;;;;;;11.71;62.71;98763.56;8417411;28;20231;-75
2022/09/21 03:27:37;;;;;;;0.10;0.10;;;;;;;11.65;62.44;98774.16;8417244;28;20280;-75
2022/09/21 03:31:39;;;;;;;0.10;0.10;;;;;;;11.63;62.55;98784.59;8417097;28;20538;-75
2022/09/21 03:35:42;;;;;;;0.20;0.20;;;;;;;11.53;62.64;98791.84;8416723;28;20464;-75
2022/09/21 03:39:46;;;;;;;0.10;0.10;;;;;;;11.40;62.44;98785.38;8415492;28;20239;-75
2022/09/21 03:43:49;;;;;;;0.10;0.10;;;;;;;11.32;62.85;98788.25;8416224;28;20506;-74
2022/09/21 03:47:55;;;;;;;0.10;0.10;;;;;;;11.37;62.83;98780.31;8416179;28;20308;-74
2022/09/21 03:51:58;;;;;;;0.10;0.10;;;;;;;11.64;62.87;98778.50;8416402;28;20239;-75
2022/09/21 03:56:02;;;;;;;0.17;0.17;;;;;;;11.50;62.31;98784.19;8416241;28;20461;-74
2022/09/21 04:00:08;;;;;;;0.10;0.10;;;;;;;11.67;62.41;98790.50;8416262;28;20238;-75
2022/09/21 04:04:10;;;;;;;0.10;0.10;;;;;;;11.41;62.77;98789.69;8416160;28;20230;-74
2022/09/21 04:08:13;;;;;;;0.10;0.10;;;;;;;11.25;62.56;98789.38;8415589;28;20258;-75
2022/09/21 04:12:18;;;;;;;0.10;0.10;;;;;;;11.61;62.44;98799.34;8415704;28;20505;-75
2022/09/21 04:16:21;;;;;;;0.10;0.10;;;;;;;11.64;61.94;98801.00;8415588;28;20251;-75
2022/09/21 04:20:24;;;;;;;0.20;0.20;;;;;;;11.50;62.38;98804.09;8415303;28;20241;-75
2022/09/21 04:24:27;;;;;;;0.10;0.10;;;;;;;11.61;61.94;98804.53;8415320;28;20231;-75
2022/09/21 04:28:31;;;;;;;0.20;0.20;;;;;;;11.49;61.67;98811.00;8415137;28;20509;-74
2022/09/21 04:32:34;;;;;;;0.13;0.13;;;;;;;11.47;61.38;98819.75;8414995;28;20242;-73
2022/09/21 04:36:37;;;;;;;0.10;0.10;;;;;;;11.41;62.55;98810.44;8414782;28;20537;-73
2022/09/21 04:40:40;;;;;;;0.10;0.10;;;;;;;11.33;62.11;98809.84;8414926;28;20238;-73
2022/09/21 04:44:44;;;;;;;0.10;0.10;;;;;;;11.41;61.97;98818.22;8414719;28;20360;-73
2022/09/21 04:48:48;;;;;;;0.10;0.10;;;;;;;11.27;61.98;98816.09;8413914;28;20238;-73
2022/09/21 04:52:50;;;;;;;0.10;0.10;;;;;;;11.40;61.57;98821.69;8413816;28;20230;-74
2022/09/21 04:56:53;;;;;;;0.10;0.10;;;;;;;11.29;61.80;98822.06;8414240;28;20533;-73
2022/09/21 05:00:57;;;;;;;0.13;0.13;;;;;;;11.30;61.90;98821.16;8414099;28;20234;-74
2022/09/21 05:04:59;;;;;;;0.20;0.20;;;;;;;11.20;62.03;98824.97;8413959;28;20238;-73
2022/09/21 05:13:22;;;;;;;0.10;0.10;;;;;;;11.31;62.64;98835.00;8413838;28;20281;-73
2022/09/21 05:17:26;;;;;;;0.10;0.10;;;;;;;11.52;62.14;98846.38;8413738;28;20238;-74
2022/09/21 05:21:30;;;;;;;0.10;0.10;;;;;;;11.44;62.02;98838.00;8413340;28;20234;-73
2022/09/21 05:25:33;;;;;;;0.10;0.10;;;;;;;11.18;63.37;98849.25;8413651;28;20230;-74
2022/09/21 05:29:36;;;;;;;0.20;0.20;;;;;;;11.22;62.16;98841.31;8413610;28;20458;-74
2022/09/21 05:33:42;;;;;;;0.10;0.10;;;;;;;11.30;62.60;98849.69;8413599;28;20329;-73
2022/09/21 05:37:49;;;;;;;0.13;0.13;;;;;;;11.37;62.70;98852.94;8413657;28;20237;-73
2022/09/21 05:41:53;;;;;;;0.10;0.10;;;;;;;11.40;62.63;98851.97;8413146;28;20325;-74
2022/09/21 05:46:02;;;;;;;0.20;0.20;;;;;;;11.33;62.28;98859.13;8413164;28;20268;-73
2022/09/21 05:50:36;;;;;;;0.10;0.10;;;;;;;11.46;62.56;98855.22;8413149;28;20238;-74
2022/09/21 05:54:50;;;;;;;0.10;0.10;;;;;;;11.50;62.45;98859.41;8413224;28;20526;-74
2022/09/21 05:58:58;;;;;;;0.20;0.20;;;;;;;11.41;62.48;98859.72;8412414;28;20237;-73
2022/09/21 06:03:28;;;;;;;0.10;0.10;;;;;;;11.36;62.19;98869.38;8416599;28;20234;-73
2022/09/21 06:07:32;;;;;;;0.23;0.23;;;;;;;11.11;62.54;98864.16;8411675;28;20279;-73
2022/09/21 06:11:35;;;;;;;0.10;0.10;;;;;;;11.38;62.10;98870.19;8419240;28;20239;-74
2022/09/21 06:15:37;;;;;;;0.20;0.20;;;;;;;11.37;62.73;98880.63;8419382;28;20521;-76
2022/09/21 06:19:40;;;;;;;0.10;0.10;;;;;;;11.48;62.43;98873.31;8419014;28;20288;-73
2022/09/21 06:23:44;;;;;;;0.10;0.10;;;;;;;11.60;62.14;98879.84;8418918;28;20403;-73
2022/09/21 06:27:47;;;;;;;0.40;0.40;;;;;;;11.33;62.03;98883.31;8418502;28;20231;-72
2022/09/21 06:31:50;;;;;;;0.10;0.10;;;;;;;11.60;62.75;98885.88;8418254;28;20514;-74
2022/09/21 06:35:54;;;;;;;0.10;0.10;;;;;;;11.49;62.39;98878.44;8418564;28;20227;-73
2022/09/21 06:39:58;;;;;;;0.10;0.10;;;;;;;11.72;62.15;98882.00;8418437;28;20564;-73
2022/09/21 06:44:01;;;;;;;0.10;0.10;;;;;;;11.99;62.67;98889.78;8418477;28;20238;-74
2022/09/21 06:48:04;;;;;;;0.10;0.10;;;;;;;11.74;61.73;98888.00;8418123;28;20284;-74
2022/09/21 06:52:07;;;;;;;0.10;0.10;;;;;;;11.84;62.79;98889.38;8417958;28;20247;-74
2022/09/21 06:56:11;;;;;;;0.10;0.10;;;;;;;11.90;62.19;98891.78;8418301;28;20230;-76
2022/09/21 07:00:15;;;;;;;0.10;0.10;;;;;;;11.89;61.40;98903.06;8418015;28;20265;-74
2022/09/21 07:04:17;;;;;;;0.10;0.10;;;;;;;11.89;61.83;98891.81;8417790;28;20411;-75
2022/09/21 07:08:26;;;;;;;0.10;0.10;;;;;;;11.74;62.89;98896.63;8417628;28;20257;-75
2022/09/21 07:12:51;;;;;;;0.10;0.10;;;;;;;12.10;61.46;98904.06;8416719;28;20297;-74
2022/09/21 07:16:54;;;;;;;0.10;0.10;;;;;;;12.05;62.44;98902.53;8417436;28;20234;-75
2022/09/21 07:20:56;;;;;;;0.10;0.10;;;;;;;12.02;62.46;98903.50;8417354;28;20416;-75
2022/09/21 07:25:00;;;;;;;0.10;0.10;;;;;;;12.26;61.55;98909.56;8417198;28;20230;-75
2022/09/21 07:29:04;;;;;;;0.20;0.20;;;;;;;11.63;62.15;98901.34;8417092;28;20574;-74
2022/09/21 07:33:08;;;;;;;0.10;0.10;;;;;;;11.78;61.72;98906.91;8417025;28;20437;-74
2022/09/21 07:37:11;;;;;;;0.10;0.10;;;;;;;12.08;61.02;98903.25;8417066;28;20480;-75
2022/09/21 07:41:14;;;;;;;0.10;0.10;;;;;;;12.11;61.74;98917.91;8416779;28;20227;-74
2022/09/21 07:45:18;;;;;;;0.10;0.10;;;;;;;11.97;61.58;98909.75;8416284;28;20459;-75
2022/09/21 07:49:21;;;;;;;0.10;0.10;;;;;;;12.11;62.02;98916.16;8416439;28;20235;-74
2022/09/21 07:53:24;;;;;;;0.10;0.10;;;;;;;12.35;61.43;98910.13;8416156;28;20284;-75
2022/09/21 08:01:49;;;;;;;0.10;0.10;;;;;;;12.47;60.53;98912.25;8415359;28;20238;-74
2022/09/21 08:05:52;;;;;;;0.00;0.00;;;;;;;12.42;60.78;98911.59;8415792;28;20235;-74
2022/09/21 08:09:55;;;;;;;0.10;0.10;;;;;;;12.03;62.32;98915.59;8415410;28;20230;-74
2022/09/21 08:13:59;;;;;;;0.00;0.00;;;;;;;12.41;61.42;98921.13;8415571;28;20227;-77
2022/09/21 08:18:06;;;;;;;0.10;0.10;;;;;;;12.60;61.44;98918.69;8415250;28;20238;-75
2022/09/21 08:22:09;;;;;;;0.00;0.00;;;;;;;12.62;61.42;98914.31;8415621;28;20385;-75
2022/09/21 08:26:17;;;;;;;0.10;0.10;;;;;;;12.75;61.54;98917.28;8414224;28;20226;-75
2022/09/21 08:30:20;;;;;;;0.10;0.10;;;;;;;13.03;61.34;98918.81;8415335;28;20585;-74
2022/09/21 08:34:25;;;;;;;0.10;0.10;;;;;;;13.16;60.37;98909.63;8414926;28;20227;-75
2022/09/21 08:38:32;;;;;;;0.10;0.10;;;;;;;13.30;60.38;98907.34;8414955;28;20234;-74
2022/09/21 08:42:42;;;;;;;0.00;0.00;;;;;;;12.70;61.26;98920.06;8414609;28;20235;-75
2022/09/21 08:47:02;;;;;;;0.03;0.03;;;;;;;13.35;60.25;98920.19;8414119;28;20231;-75
2022/09/21 08:51:09;;;;;;;0.10;0.10;;;;;;;13.09;60.88;98926.38;8414621;28;20239;-75
2022/09/21 08:55:18;;;;;;;0.03;0.03;;;;;;;13.52;59.64;98918.63;8414447;28;20238;-76
2022/09/21 08:59:21;;;;;;;0.10;0.10;;;;;;;13.35;58.19;98914.97;8414535;28;20305;-75
2022/09/21 09:03:49;;;;;;;0.10;0.10;;;;;;;13.62;58.89;98923.41;8413804;28;20241;-75
2022/09/21 09:08:20;;;;;;;0.10;0.10;;;;;;;13.91;57.74;98923.09;8413697;28;20526;-73
2022/09/21 09:12:35;;;;;;;0.03;0.03;;;;;;;14.40;56.75;98916.56;8411992;28;20246;-76
2022/09/21 09:16:45;;;;;;;0.10;0.10;;;;;;;15.29;56.32;98916.84;8413943;28;20242;-76
2022/09/21 09:20:52;;;;;;;0.00;0.00;;;;;;;15.86;54.89;98914.06;8413825;28;20440;-76
2022/09/21 09:24:59;;;;;;;0.00;0.00;;;;;;;15.93;54.70;98915.41;8414165;28;20254;-77
2022/09/21 09:29:03;;;;;;;0.10;0.10;;;;;;;15.58;54.36;98918.00;8413916;28;20247;-75
2022/09/21 09:33:11;;;;;;;0.00;0.00;;;;;;;15.78;52.88;98916.19;8413562;28;20238;-76
2022/09/21 09:37:15;;;;;;;0.00;0.00;;;;;;;15.60;53.70;98917.94;8413895;28;20274;-76
2022/09/21 09:41:38;;;;;;;0.07;0.07;;;;;;;16.32;51.77;98918.66;8413843;28;20242;-76
2022/09/21 09:45:49;;;;;;;0.00;0.00;;;;;;;16.83;51.34;98916.81;8413254;28;20292;-77
2022/09/21 09:50:01;;;;;;;0.10;0.10;;;;;;;17.70;48.19;98907.53;8413148;28;20231;-76
2022/09/21 09:54:05;;;;;;;0.00;0.00;;;;;;;18.34;48.37;98897.63;8413265;28;20533;-76
2022/09/21 09:58:18;;;;;;;0.00;0.00;;;;;;;18.87;46.77;98896.09;8413376;28;20226;-76
2022/09/21 10:02:22;;;;;;;0.00;0.00;;;;;;;19.24;45.70;98890.25;8413007;28;20229;-76
2022/09/21 10:06:32;;;;;;;0.00;0.00;;;;;;;19.40;43.93;98890.94;8413403;28;20238;-76
2022/09/21 10:10:36;;;;;;;0.00;0.00;;;;;;;18.93;44.51;98885.19;8413138;28;20243;-76
2022/09/21 10:14:48;;;;;;;0.00;0.00;;;;;;;19.61;44.21;98885.19;8413139;28;20231;-76
2022/09/21 10:18:55;;;;;;;0.00;0.00;;;;;;;20.10;49.03;98882.75;8412698;28;20227;-78
2022/09/21 10:23:00;;;;;;;0.00;0.00;;;;;;;19.70;42.91;98871.44;8413058;28;20335;-77
2022/09/21 10:27:05;;;;;;;0.00;0.00;;;;;;;20.35;42.88;98873.13;8412835;28;20542;-74
2022/09/21 10:31:12;;;;;;;0.00;0.00;;;;;;;20.26;42.98;98876.41;8413043;28;20235;-75
2022/09/21 10:35:18;;;;;;;0.00;0.00;;;;;;;20.59;43.42;98872.34;8413020;28;20257;-74
2022/09/21 10:39:23;;;;;;;0.00;0.00;;;;;;;20.75;40.83;98869.47;8412969;28;20464;-75
2022/09/21 10:43:34;;;;;;;0.00;0.00;;;;;;;20.13;40.82;98872.97;8412402;28;20272;-76
2022/09/21 10:47:45;;;;;;;0.00;0.00;;;;;;;20.74;39.52;98870.44;8413721;28;20241;-75
2022/09/21 10:51:49;;;;;;;0.00;0.00;;;;;;;20.62;36.94;98866.88;8418072;28;20234;-76
2022/09/21 10:55:57;;;;;;;0.00;0.00;;;;;;;21.00;39.46;98868.53;8418587;28;20237;-75
2022/09/21 11:00:34;;;;;;;0.00;0.00;;;;;;;21.08;39.09;98863.56;8418311;28;20235;-76
2022/09/21 11:04:43;;;;;;;0.00;0.00;;;;;;;21.28;38.10;98862.09;8418051;28;20240;-76
2022/09/21 11:08:49;;;;;;;0.00;0.00;;;;;;;21.28;38.16;98859.44;8417657;28;20231;-76
2022/09/21 11:12:59;;;;;;;0.00;0.00;;;;;;;21.21;36.14;98863.50;8417235;28;20526;-74
2022/09/21 11:17:09;;;;;;;0.00;0.00;;;;;;;21.19;37.02;98862.75;8417488;28;20250;-74
2022/09/21 11:21:18;;;;;;;0.00;0.00;;;;;;;21.40;35.78;98860.31;8417664;28;20238;-73
2022/09/21 11:25:29;;;;;;;0.00;0.00;;;;;;;21.26;35.71;98859.56;8417163;28;20827;-74
2022/09/21 11:29:37;;;;;;;0.00;0.00;;;;;;;21.11;34.11;98851.97;8417000;28;20230;-74
2022/09/21 11:33:52;;;;;;;0.00;0.00;;;;;;;21.30;36.00;98849.63;8416993;28;20245;-74
2022/09/21 11:38:04;;;;;;;0.00;0.00;;;;;;;21.40;34.77;98840.13;8416836;28;20224;-74
2022/09/21 11:42:18;;;;;;;0.00;0.00;;;;;;;21.51;34.36;98839.31;8416764;28;20235;-74
2022/09/21 11:46:25;;;;;;;0.00;0.00;;;;;;;21.54;36.17;98833.81;8416583;28;20246;-74
2022/09/21 11:50:37;;;;;;;0.00;0.00;;;;;;;21.61;37.00;98829.78;8416592;28;20642;-74
2022/09/21 11:55:17;;;;;;;0.00;0.00;;;;;;;21.22;31.84;98825.69;8416253;28;20238;-74
2022/09/21 11:59:42;;;;;;;0.00;0.00;;;;;;;20.53;34.56;98828.06;8414767;28;20538;-74
2022/09/21 12:04:06;;;;;;;0.00;0.00;;;;;;;20.96;35.78;98824.97;8416172;28;20517;-75
2022/09/21 12:08:32;;;;;;;0.00;0.00;;;;;;;21.35;35.77;98813.25;8415583;28;20234;-74
2022/09/21 12:12:38;;;;;;;0.00;0.00;;;;;;;21.41;35.94;98822.50;8399404;28;20245;-74
2022/09/21 12:16:46;;;;;;;0.00;0.00;;;;;;;21.65;36.17;98814.56;8415761;28;20241;-74
2022/09/21 12:20:55;;;;;;;0.00;0.00;;;;;;;21.80;35.60;98809.88;8415104;28;20549;-73
2022/09/21 12:25:01;;;;;;;0.00;0.00;;;;;;;21.14;35.86;98812.25;8415352;28;20549;-72
2022/09/21 12:29:07;;;;;;;0.00;0.00;;;;;;;20.57;37.21;98813.75;8415067;28;20435;-73
2022/09/21 12:33:15;;;;;;;0.00;0.00;;;;;;;20.76;38.08;98803.56;8415286;28;20249;-73
2022/09/21 12:37:22;;;;;;;0.47;0.10;;;;;;;21.57;36.75;98806.38;8414880;28;20231;-74
2022/09/21 12:41:32;;;;;;;0.00;0.00;;;;;;;20.75;37.56;98798.41;8414950;28;20227;-73
2022/09/21 12:45:39;;;;;;;0.00;0.00;;;;;;;20.83;37.58;98793.47;8414522;28;20269;-73
2022/09/21 12:49:44;;;;;;;0.00;0.00;;;;;;;20.53;38.17;98799.13;8414923;28;20418;-75
2022/09/21 12:53:49;;;;;;;0.00;0.00;;;;;;;20.01;39.27;98794.00;8414181;28;20235;-72
2022/09/21 12:57:56;;;;;;;0.00;0.00;;;;;;;19.71;38.88;98794.28;8415377;28;20430;-73
2022/09/21 13:02:23;;;;;;;0.00;0.00;;;;;;;20.29;38.19;98795.47;8414926;28;20536;-73
2022/09/21 13:07:01;;;;;;;0.00;0.00;;;;;;;20.99;36.76;98778.19;8413919;28;20231;-74
2022/09/21 13:11:06;;;;;;;0.00;0.00;;;;;;;19.92;37.72;98786.75;8413350;28;20235;-73
2022/09/21 13:15:14;;;;;;;0.00;0.00;;;;;;;20.96;35.84;98777.56;8414399;28;20274;-74
2022/09/21 13:19:21;;;;;;;0.00;0.00;;;;;;;21.31;35.79;98782.00;8414473;28;20564;-74
2022/09/21 13:23:28;;;;;;;0.00;0.00;;;;;;;21.65;34.96;98775.88;8414431;28;20237;-73
2022/09/21 13:27:59;;;;;;;0.00;0.00;;;;;;;21.73;33.71;98777.91;8413125;28;20290;-74
2022/09/21 13:32:03;;;;;;;0.00;0.00;;;;;;;21.76;33.62;98769.78;8413843;28;20230;-74
2022/09/21 13:36:33;;;;;;;0.00;0.00;;;;;;;21.38;31.29;98763.00;8413651;28;20530;-74
2022/09/21 13:40:36;;;;;;;0.00;0.00;;;;;;;21.99;32.66;98762.69;8414389;28;20253;-75
2022/09/21 13:44:45;;;;;;;0.00;0.00;;;;;;;21.54;33.50;98756.56;8414582;28;20242;-75
2022/09/21 13:48:52;;;;;;;0.00;0.00;;;;;;;21.67;32.54;98750.22;8412827;28;20241;-73
2022/09/21 13:52:58;;;;;;;0.00;0.00;;;;;;;21.96;33.13;98752.38;8413134;28;20234;-75
2022/09/21 13:57:20;;;;;;;0.00;0.00;;;;;;;22.17;32.41;98743.72;8413338;28;20242;-73
2022/09/21 14:01:23;;;;;;;0.00;0.00;;;;;;;22.11;33.00;98742.41;8412996;28;20552;-77
2022/09/21 14:05:48;;;;;;;0.00;0.00;;;;;;;21.86;32.01;98741.72;8413061;28;20242;-73
2022/09/21 14:09:57;;;;;;;0.00;0.00;;;;;;;22.05;31.24;98740.28;8412566;28;20442;-73
2022/09/21 14:14:08;;;;;;;0.00;0.00;;;;;;;21.26;31.55;98735.75;8412820;28;20244;-74
2022/09/21 14:18:34;;;;;;;0.00;0.00;;;;;;;21.99;31.61;98740.72;8411803;28;20463;-74
2022/09/21 14:22:39;;;;;;;0.00;0.00;;;;;;;21.89;31.32;98735.34;8413953;28;20536;-74
2022/09/21 14:26:50;;;;;;;0.00;0.00;;;;;;;20.62;32.62;98735.31;8419146;28;20230;-74
2022/09/21 14:30:56;;;;;;;0.00;0.00;;;;;;;20.26;34.21;98735.22;8418600;28;20466;-74
2022/09/21 14:35:01;;;;;;;0.00;0.00;;;;;;;19.92;34.98;98737.63;8419208;28;20552;-75
2022/09/21 14:39:06;;;;;;;0.00;0.00;;;;;;;19.79;35.77;98739.44;8419231;28;20237;-75
2022/09/21 14:43:14;;;;;;;0.00;0.00;;;;;;;19.79;36.03;98726.31;8418758;28;20234;-74
2022/09/21 14:47:30;;;;;;;0.00;0.00;;;;;;;19.64;36.99;98717.66;8418574;28;20233;-74
2022/09/21 14:51:40;;;;;;;0.00;0.00;;;;;;;19.45;36.56;98725.16;8418634;28;20275;-75
2022/09/21 14:55:55;;;;;;;0.00;0.00;;;;;;;19.24;36.09;98723.03;8418331;28;20233;-75
2022/09/21 15:00:13;;;;;;;0.00;0.00;;;;;;;19.04;35.41;98718.28;8418121;28;20225;-74
2022/09/21 15:04:29;;;;;;;0.00;0.00;;;;;;;18.93;36.95;98713.78;8418063;28;20231;-75
2022/09/21 15:13:19;;;;;;;0.00;0.00;;;;;;;19.43;37.22;98706.84;8417444;28;20238;-75
2022/09/21 15:17:25;;;;;;;0.00;0.00;;;;;;;18.88;35.90;98706.19;8417615;28;20422;-74
2022/09/21 15:21:29;;;;;;;0.00;0.00;;;;;;;18.65;36.05;98706.84;8417522;28;20238;-75
2022/09/21 15:25:33;;;;;;;0.00;0.00;;;;;;;18.47;39.65;98704.50;8417531;28;20239;-75
2022/09/21 15:29:36;;;;;;;0.00;0.00;;;;;;;18.72;38.57;98695.03;8417691;28;20403;-75
2022/09/21 15:33:45;;;;;;;0.00;0.00;;;;;;;18.36;37.48;98699.94;8417467;28;20240;-75
2022/09/21 15:37:48;;;;;;;0.00;0.00;;;;;;;19.06;38.43;98698.06;8417035;28;20247;-74
2022/09/21 15:42:05;;;;;;;0.00;0.00;;;;;;;19.09;38.62;98688.16;8417058;28;20240;-77
2022/09/21 15:46:11;;;;;;;0.00;0.00;;;;;;;19.26;38.63;98688.81;8416881;28;20282;-77
2022/09/21 15:50:16;;;;;;;0.00;0.00;;;;;;;19.18;38.86;98685.88;8417443;28;20467;-77
2022/09/21 15:54:30;;;;;;;0.00;0.00;;;;;;;19.23;38.72;98687.25;8417650;28;20235;-78
2022/09/21 15:58:35;;;;;;;0.00;0.00;;;;;;;19.08;38.92;98689.13;8416875;28;20292;-78
2022/09/21 16:02:39;;;;;;;0.00;0.00;;;;;;;18.93;39.47;98684.91;8416090;28;20297;-78
2022/09/21 16:06:49;;;;;;;0.00;0.00;;;;;;;18.81;40.02;98676.06;8416195;28;20434;-77
2022/09/21 16:10:52;;;;;;;0.00;0.00;;;;;;;18.65;39.99;98684.06;8415302;28;20228;-77
2022/09/21 16:15:00;;;;;;;0.00;0.00;;;;;;;18.55;40.10;98683.84;8415979;28;20236;-78
2022/09/21 16:19:06;;;;;;;0.00;0.00;;;;;;;18.41;40.97;98683.06;8415944;28;20236;-78
2022/09/21 16:23:15;;;;;;;0.00;0.00;;;;;;;18.42;40.85;98676.88;8415690;28;20514;-78
2022/09/21 16:27:19;;;;;;;0.00;0.00;;;;;;;18.27;42.00;98683.97;8415481;28;20236;-78
2022/09/21 16:31:28;;;;;;;0.00;0.00;;;;;;;18.19;41.72;98686.25;8415421;28;20558;-77
2022/09/21 16:35:39;;;;;;;0.00;0.00;;;;;;;18.05;41.96;98685.34;8415204;28;20244;-77
2022/09/21 16:39:44;;;;;;;0.20;0.00;;;;;;;17.96;42.35;98693.78;8415145;28;20231;-77
2022/09/21 16:43:47;;;;;;;0.00;0.00;;;;;;;17.85;43.04;98693.63;8414858;28;20231;-77
2022/09/21 16:47:49;;;;;;;0.00;0.00;;;;;;;17.78;43.40;98693.09;8413638;28;20235;-77
2022/09/21 16:51:54;;;;;;;0.00;0.00;;;;;;;17.63;44.22;98697.53;8414512;28;20233;-77
2022/09/21 16:55:58;;;;;;;0.00;0.00;;;;;;;17.62;44.59;98695.84;8414635;28;20234;-78
2022/09/21 17:00:02;;;;;;;0.00;0.00;;;;;;;17.53;45.01;98699.03;8414447;28;20231;-78
2022/09/21 17:04:05;;;;;;;0.00;0.00;;;;;;;17.39;46.17;98697.25;8414343;28;20235;-77
2022/09/21 17:08:09;;;;;;;0.00;0.00;;;;;;;17.35;45.44;98698.38;8414616;28;20410;-78
2022/09/21 17:12:15;;;;;;;0.00;0.00;;;;;;;17.27;46.82;98711.06;8414775;28;20420;-82
2022/09/21 17:16:19;;;;;;;0.00;0.00;;;;;;;17.16;46.10;98703.88;8414441;28;20524;-77
2022/09/21 17:20:27;;;;;;;0.00;0.00;;;;;;;17.07;46.35;98702.63;8414529;28;20272;-77
2022/09/21 17:24:30;;;;;;;0.00;0.00;;;;;;;16.98;46.41;98700.56;8413992;28;20235;-74
2022/09/21 17:28:53;;;;;;;0.00;0.00;;;;;;;16.90;47.11;98705.41;8413808;28;20230;-78
2022/09/21 17:32:57;;;;;;;0.00;0.00;;;;;;;16.79;48.14;98704.25;8414415;28;20230;-81
2022/09/21 17:36:59;;;;;;;0.00;0.00;;;;;;;16.68;48.29;98704.03;8414309;28;20231;-79
2022/09/21 17:41:06;;;;;;;0.00;0.00;;;;;;;16.62;48.71;98704.38;8413561;28;20231;-78
2022/09/21 17:45:16;;;;;;;0.00;0.00;;;;;;;16.55;49.48;98709.09;8413917;28;20407;-81
2022/09/21 17:49:19;;;;;;;0.00;0.00;;;;;;;16.42;49.35;98700.28;8414192;28;20245;-78
2022/09/21 17:53:35;;;;;;;0.00;0.00;;;;;;;16.37;49.57;98713.63;8413961;28;20235;-77
2022/09/21 17:57:48;;;;;;;0.00;0.00;;;;;;;16.34;49.02;98718.16;8414664;28;20239;-80
2022/09/21 18:01:52;;;;;;;0.00;0.00;;;;;;;16.24;49.66;98717.84;8420023;28;20418;-78
2022/09/21 18:05:59;;;;;;;0.00;0.00;;;;;;;16.22;50.74;98717.06;8420444;28;20243;-79
2022/09/21 18:10:02;;;;;;;0.00;0.00;;;;;;;16.10;50.73;98723.81;8420027;28;20238;-77
2022/09/21 18:14:11;;;;;;;0.00;0.00;;;;;;;16.05;49.61;98732.81;8420106;28;20234;-77
2022/09/21 18:18:18;;;;;;;0.00;0.00;;;;;;;15.97;49.63;98728.88;8420268;28;20451;-77
2022/09/21 18:22:24;;;;;;;0.00;0.00;;;;;;;15.92;50.49;98735.28;8419426;28;20245;-78
2022/09/21 18:26:28;;;;;;;0.00;0.00;;;;;;;15.85;50.30;98729.53;8419289;28;20231;-78
2022/09/21 18:30:31;;;;;;;0.00;0.00;;;;;;;15.70;50.29;98732.94;8418988;28;20233;-78
2022/09/21 18:35:21;;;;;;;0.00;0.00;;;;;;;15.80;50.67;98736.75;8418781;28;20246;-78
2022/09/21 18:39:31;;;;;;;0.00;0.00;;;;;;;15.69;51.26;98736.44;8357988;28;20458;-78
2022/09/21 18:43:41;;;;;;;0.00;0.00;;;;;;;15.59;51.78;98738.69;8418610;28;20459;-78
2022/09/21 18:47:51;;;;;;;0.00;0.00;;;;;;;15.50;52.65;98739.19;8418603;28;20238;-78
2022/09/21 18:52:05;;;;;;;0.00;0.00;;;;;;;15.41;52.59;98746.56;8418035;28;20233;-78
2022/09/21 18:56:10;;;;;;;0.00;0.00;;;;;;;15.38;52.16;98745.88;8418408;28;20230;-78
2022/09/21 19:00:15;;;;;;;0.00;0.00;;;;;;;15.33;52.75;98740.09;8417943;28;20540;-78
2022/09/21 19:04:19;;;;;;;0.00;0.00;;;;;;;15.30;52.97;98751.50;8417994;28;20406;-78
2022/09/21 19:08:28;;;;;;;0.00;0.00;;;;;;;15.21;53.34;98746.75;8417296;28;20546;-79
2022/09/21 19:12:42;;;;;;;0.00;0.00;;;;;;;15.14;53.32;98748.84;8418020;28;20230;-77
2022/09/21 19:17:02;;;;;;;0.00;0.00;;;;;;;15.11;52.94;98751.59;8417654;28;20226;-78
2022/09/21 19:21:19;;;;;;;0.00;0.00;;;;;;;14.93;53.63;98748.16;8417463;28;20230;-77
2022/09/21 19:25:29;;;;;;;0.00;0.00;;;;;;;14.89;53.64;98745.75;8417321;28;20284;-78
2022/09/21 19:29:40;;;;;;;0.00;0.00;;;;;;;14.71;53.66;98742.28;8417157;28;20239;-79
2022/09/21 19:33:44;;;;;;;0.00;0.00;;;;;;;14.73;53.95;98749.13;8417181;28;20234;-78
2022/09/21 19:37:55;;;;;;;0.03;0.03;;;;;;;14.57;54.32;98754.25;8416445;28;20234;-77
2022/09/21 19:42:07;;;;;;;0.00;0.00;;;;;;;14.57;54.03;98753.41;8416898;28;20234;-77